sensor_id;sensor_type;location;lat;lon;timestamp;P1;durP1;ratioP1;P2;durP2;ratioP2
16093;SDS011;8151;47.824;12.092;2023-05-07T00:00:20;6.40;;;2.80;;
16093;SDS011;8151;47.824;12.092;2023-05-07T00:02:49;3.00;;;2.37;;
16093;SDS011;8151;47.824;12.092;2023-05-07T00:05:18;2.53;;;2.30;;
16093;SDS011;8151;47.824;12.092;2023-05-07T00:07:47;5.73;;;2.20;;
16093;SDS011;8151;47.824;12.092;2023-05-07T00:10:17;2.80;;;2.50;;
16093;SDS011;8151;47.824;12.092;2023-05-07T00:12:49;5.73;;;2.70;;
16093;SDS011;8151;47.824;12.092;2023-05-07T00:15:19;4.63;;;2.17;;
16093;SDS011;8151;47.824;12.092;2023-05-07T00:17:47;2.57;;;2.37;;
16093;SDS011;8151;47.824;12.092;2023-05-07T00:20:15;5.27;;;2.57;;
16093;SDS011;8151;47.824;12.092;2023-05-07T00:22:44;4.20;;;2.70;;
16093;SDS011;8151;47.824;12.092;2023-05-07T00:25:12;4.53;;;2.60;;
16093;SDS011;8151;47.824;12.092;2023-05-07T00:27:42;3.30;;;2.17;;
16093;SDS011;8151;47.824;12.092;2023-05-07T00:30:12;4.43;;;2.60;;
16093;SDS011;8151;47.824;12.092;2023-05-07T00:32:43;3.23;;;3.00;;
16093;SDS011;8151;47.824;12.092;2023-05-07T00:35:12;4.50;;;3.80;;
16093;SDS011;8151;47.824;12.092;2023-05-07T00:37:41;5.57;;;3.80;;
16093;SDS011;8151;47.824;12.092;2023-05-07T00:40:09;4.20;;;3.80;;
16093;SDS011;8151;47.824;12.092;2023-05-07T00:42:48;8.10;;;3.90;;
16093;SDS011;8151;47.824;12.092;2023-05-07T00:45:18;5.17;;;3.87;;
16093;SDS011;8151;47.824;12.092;2023-05-07T00:47:46;4.87;;;3.70;;
16093;SDS011;8151;47.824;12.092;2023-05-07T00:50:25;5.43;;;3.23;;
16093;SDS011;8151;47.824;12.092;2023-05-07T00:52:54;3.10;;;2.80;;
16093;SDS011;8151;47.824;12.092;2023-05-07T00:55:23;5.17;;;2.97;;
16093;SDS011;8151;47.824;12.092;2023-05-07T00:57:52;2.90;;;2.70;;
16093;SDS011;8151;47.824;12.092;2023-05-07T01:00:23;4.00;;;2.50;;
16093;SDS011;8151;47.824;12.092;2023-05-07T01:02:52;3.67;;;2.43;;
16093;SDS011;8151;47.824;12.092;2023-05-07T01:05:22;2.53;;;2.20;;
16093;SDS011;8151;47.824;12.092;2023-05-07T01:07:53;4.83;;;3.30;;
16093;SDS011;8151;47.824;12.092;2023-05-07T01:10:22;3.93;;;3.60;;
16093;SDS011;8151;47.824;12.092;2023-05-07T01:12:51;3.90;;;3.50;;
16093;SDS011;8151;47.824;12.092;2023-05-07T01:15:23;4.40;;;3.77;;
16093;SDS011;8151;47.824;12.092;2023-05-07T01:17:51;6.27;;;4.07;;
16093;SDS011;8151;47.824;12.092;2023-05-07T01:20:20;5.00;;;4.50;;
16093;SDS011;8151;47.824;12.092;2023-05-07T01:22:51;5.27;;;4.47;;
16093;SDS011;8151;47.824;12.092;2023-05-07T01:25:21;3.90;;;3.60;;
16093;SDS011;8151;47.824;12.092;2023-05-07T01:28:00;4.83;;;4.00;;
16093;SDS011;8151;47.824;12.092;2023-05-07T01:30:29;6.37;;;3.93;;
16093;SDS011;8151;47.824;12.092;2023-05-07T01:32:59;3.70;;;3.40;;
16093;SDS011;8151;47.824;12.092;2023-05-07T01:35:33;5.20;;;3.33;;
16093;SDS011;8151;47.824;12.092;2023-05-07T01:38:06;3.73;;;2.27;;
16093;SDS011;8151;47.824;12.092;2023-05-07T01:40:36;3.00;;;2.40;;
16093;SDS011;8151;47.824;12.092;2023-05-07T01:43:04;2.27;;;2.17;;
16093;SDS011;8151;47.824;12.092;2023-05-07T01:45:34;2.73;;;2.17;;
16093;SDS011;8151;47.824;12.092;2023-05-07T01:48:03;5.67;;;2.43;;
16093;SDS011;8151;47.824;12.092;2023-05-07T01:50:32;4.57;;;2.30;;
16093;SDS011;8151;47.824;12.092;2023-05-07T01:53:13;2.67;;;2.00;;
16093;SDS011;8151;47.824;12.092;2023-05-07T01:55:44;2.27;;;2.07;;
16093;SDS011;8151;47.824;12.092;2023-05-07T01:58:12;4.23;;;2.60;;
16093;SDS011;8151;47.824;12.092;2023-05-07T02:00:43;2.40;;;2.20;;
16093;SDS011;8151;47.824;12.092;2023-05-07T02:03:11;2.50;;;2.30;;
16093;SDS011;8151;47.824;12.092;2023-05-07T02:05:40;3.27;;;2.30;;
16093;SDS011;8151;47.824;12.092;2023-05-07T02:08:08;4.00;;;2.50;;
16093;SDS011;8151;47.824;12.092;2023-05-07T02:10:38;2.70;;;2.27;;
16093;SDS011;8151;47.824;12.092;2023-05-07T02:13:07;3.53;;;2.10;;
16093;SDS011;8151;47.824;12.092;2023-05-07T02:15:37;2.53;;;2.10;;
16093;SDS011;8151;47.824;12.092;2023-05-07T02:18:09;3.60;;;2.47;;
16093;SDS011;8151;47.824;12.092;2023-05-07T02:20:38;3.47;;;2.63;;
16093;SDS011;8151;47.824;12.092;2023-05-07T02:23:06;4.50;;;2.37;;
16093;SDS011;8151;47.824;12.092;2023-05-07T02:25:34;3.70;;;2.47;;
16093;SDS011;8151;47.824;12.092;2023-05-07T02:28:04;4.43;;;2.47;;
16093;SDS011;8151;47.824;12.092;2023-05-07T02:30:33;3.13;;;2.60;;
16093;SDS011;8151;47.824;12.092;2023-05-07T02:33:01;5.57;;;2.90;;
16093;SDS011;8151;47.824;12.092;2023-05-07T02:35:29;3.60;;;2.23;;
16093;SDS011;8151;47.824;12.092;2023-05-07T02:37:58;2.87;;;2.60;;
16093;SDS011;8151;47.824;12.092;2023-05-07T02:40:26;4.93;;;2.50;;
16093;SDS011;8151;47.824;12.092;2023-05-07T02:43:00;3.03;;;2.60;;
16093;SDS011;8151;47.824;12.092;2023-05-07T02:45:30;3.80;;;2.73;;
16093;SDS011;8151;47.824;12.092;2023-05-07T02:47:59;2.60;;;2.40;;
16093;SDS011;8151;47.824;12.092;2023-05-07T02:50:27;3.13;;;2.83;;
16093;SDS011;8151;47.824;12.092;2023-05-07T02:52:59;4.63;;;3.20;;
16093;SDS011;8151;47.824;12.092;2023-05-07T02:55:28;6.97;;;3.50;;
16093;SDS011;8151;47.824;12.092;2023-05-07T02:57:56;9.73;;;4.27;;
16093;SDS011;8151;47.824;12.092;2023-05-07T03:00:24;10.13;;;4.77;;
16093;SDS011;8151;47.824;12.092;2023-05-07T03:02:54;11.33;;;5.23;;
16093;SDS011;8151;47.824;12.092;2023-05-07T03:05:29;7.33;;;4.70;;
16093;SDS011;8151;47.824;12.092;2023-05-07T03:07:57;15.27;;;4.67;;
16093;SDS011;8151;47.824;12.092;2023-05-07T03:10:25;6.93;;;3.43;;
16093;SDS011;8151;47.824;12.092;2023-05-07T03:12:54;4.73;;;3.20;;
16093;SDS011;8151;47.824;12.092;2023-05-07T03:15:22;5.53;;;3.17;;
16093;SDS011;8151;47.824;12.092;2023-05-07T03:17:51;5.07;;;3.40;;
16093;SDS011;8151;47.824;12.092;2023-05-07T03:20:21;5.00;;;3.20;;
16093;SDS011;8151;47.824;12.092;2023-05-07T03:22:50;5.87;;;3.00;;
16093;SDS011;8151;47.824;12.092;2023-05-07T03:25:18;4.03;;;3.10;;
16093;SDS011;8151;47.824;12.092;2023-05-07T03:27:47;3.70;;;3.00;;
16093;SDS011;8151;47.824;12.092;2023-05-07T03:30:18;3.27;;;3.00;;
16093;SDS011;8151;47.824;12.092;2023-05-07T03:32:46;3.70;;;3.20;;
16093;SDS011;8151;47.824;12.092;2023-05-07T03:35:15;6.20;;;3.20;;
16093;SDS011;8151;47.824;12.092;2023-05-07T03:37:47;3.20;;;2.90;;
16093;SDS011;8151;47.824;12.092;2023-05-07T03:40:17;4.30;;;3.03;;
16093;SDS011;8151;47.824;12.092;2023-05-07T03:42:47;5.07;;;3.00;;
16093;SDS011;8151;47.824;12.092;2023-05-07T03:45:16;6.07;;;3.03;;
16093;SDS011;8151;47.824;12.092;2023-05-07T03:47:46;2.87;;;2.67;;
16093;SDS011;8151;47.824;12.092;2023-05-07T03:50:14;4.70;;;2.90;;
16093;SDS011;8151;47.824;12.092;2023-05-07T03:52:47;4.00;;;2.90;;
16093;SDS011;8151;47.824;12.092;2023-05-07T03:55:16;3.70;;;2.77;;
16093;SDS011;8151;47.824;12.092;2023-05-07T03:57:48;5.23;;;3.17;;
16093;SDS011;8151;47.824;12.092;2023-05-07T04:00:17;4.43;;;3.13;;
16093;SDS011;8151;47.824;12.092;2023-05-07T04:02:48;3.17;;;2.80;;
16093;SDS011;8151;47.824;12.092;2023-05-07T04:05:17;7.13;;;3.63;;
16093;SDS011;8151;47.824;12.092;2023-05-07T04:07:54;3.60;;;2.80;;
16093;SDS011;8151;47.824;12.092;2023-05-07T04:10:23;3.50;;;3.20;;
16093;SDS011;8151;47.824;12.092;2023-05-07T04:12:51;3.43;;;2.83;;
16093;SDS011;8151;47.824;12.092;2023-05-07T04:15:20;3.47;;;3.00;;
16093;SDS011;8151;47.824;12.092;2023-05-07T04:17:48;3.13;;;2.93;;
16093;SDS011;8151;47.824;12.092;2023-05-07T04:20:17;6.13;;;2.97;;
16093;SDS011;8151;47.824;12.092;2023-05-07T04:22:46;4.07;;;3.30;;
16093;SDS011;8151;47.824;12.092;2023-05-07T04:25:16;4.90;;;3.13;;
16093;SDS011;8151;47.824;12.092;2023-05-07T04:27:48;4.37;;;3.20;;
16093;SDS011;8151;47.824;12.092;2023-05-07T04:30:18;4.47;;;2.90;;
16093;SDS011;8151;47.824;12.092;2023-05-07T04:32:47;4.07;;;3.00;;
16093;SDS011;8151;47.824;12.092;2023-05-07T04:35:17;3.90;;;3.37;;
16093;SDS011;8151;47.824;12.092;2023-05-07T04:37:46;3.40;;;3.10;;
16093;SDS011;8151;47.824;12.092;2023-05-07T04:40:14;3.40;;;2.50;;
16093;SDS011;8151;47.824;12.092;2023-05-07T04:42:47;3.53;;;2.60;;
16093;SDS011;8151;47.824;12.092;2023-05-07T04:45:16;2.87;;;2.60;;
16093;SDS011;8151;47.824;12.092;2023-05-07T04:47:46;3.53;;;2.50;;
16093;SDS011;8151;47.824;12.092;2023-05-07T04:50:14;3.50;;;2.60;;
16093;SDS011;8151;47.824;12.092;2023-05-07T04:52:44;5.07;;;2.20;;
16093;SDS011;8151;47.824;12.092;2023-05-07T04:55:13;6.83;;;2.50;;
16093;SDS011;8151;47.824;12.092;2023-05-07T04:57:43;5.20;;;2.47;;
16093;SDS011;8151;47.824;12.092;2023-05-07T05:00:12;2.87;;;2.53;;
16093;SDS011;8151;47.824;12.092;2023-05-07T05:02:42;2.47;;;2.27;;
16093;SDS011;8151;47.824;12.092;2023-05-07T05:05:11;3.53;;;2.77;;
16093;SDS011;8151;47.824;12.092;2023-05-07T05:07:43;2.90;;;2.60;;
16093;SDS011;8151;47.824;12.092;2023-05-07T05:10:11;2.87;;;2.57;;
16093;SDS011;8151;47.824;12.092;2023-05-07T05:12:40;4.57;;;2.70;;
16093;SDS011;8151;47.824;12.092;2023-05-07T05:15:10;3.43;;;3.07;;
16093;SDS011;8151;47.824;12.092;2023-05-07T05:17:39;5.43;;;4.40;;
16093;SDS011;8151;47.824;12.092;2023-05-07T05:20:08;10.20;;;6.90;;
16093;SDS011;8151;47.824;12.092;2023-05-07T05:22:37;7.13;;;6.13;;
16093;SDS011;8151;47.824;12.092;2023-05-07T05:25:06;10.47;;;6.43;;
16093;SDS011;8151;47.824;12.092;2023-05-07T05:27:35;5.93;;;5.10;;
16093;SDS011;8151;47.824;12.092;2023-05-07T05:30:04;6.97;;;4.03;;
16093;SDS011;8151;47.824;12.092;2023-05-07T05:32:34;4.73;;;4.00;;
16093;SDS011;8151;47.824;12.092;2023-05-07T05:35:03;5.10;;;3.67;;
16093;SDS011;8151;47.824;12.092;2023-05-07T05:37:32;5.90;;;4.03;;
16093;SDS011;8151;47.824;12.092;2023-05-07T05:40:00;5.33;;;4.83;;
16093;SDS011;8151;47.824;12.092;2023-05-07T05:42:29;12.80;;;9.20;;
16093;SDS011;8151;47.824;12.092;2023-05-07T05:44:57;7.10;;;5.70;;
16093;SDS011;8151;47.824;12.092;2023-05-07T05:47:26;5.70;;;4.93;;
16093;SDS011;8151;47.824;12.092;2023-05-07T05:49:56;4.67;;;4.07;;
16093;SDS011;8151;47.824;12.092;2023-05-07T05:52:24;5.90;;;4.40;;
16093;SDS011;8151;47.824;12.092;2023-05-07T05:54:53;8.03;;;4.83;;
16093;SDS011;8151;47.824;12.092;2023-05-07T05:57:21;5.30;;;4.80;;
16093;SDS011;8151;47.824;12.092;2023-05-07T05:59:52;5.07;;;3.40;;
16093;SDS011;8151;47.824;12.092;2023-05-07T06:02:20;3.60;;;3.30;;
16093;SDS011;8151;47.824;12.092;2023-05-07T06:04:49;4.50;;;3.37;;
16093;SDS011;8151;47.824;12.092;2023-05-07T06:07:20;4.20;;;3.20;;
16093;SDS011;8151;47.824;12.092;2023-05-07T06:09:48;4.07;;;3.30;;
16093;SDS011;8151;47.824;12.092;2023-05-07T06:12:20;3.60;;;2.90;;
16093;SDS011;8151;47.824;12.092;2023-05-07T06:14:48;2.77;;;2.47;;
16093;SDS011;8151;47.824;12.092;2023-05-07T06:17:18;5.83;;;2.60;;
16093;SDS011;8151;47.824;12.092;2023-05-07T06:19:47;3.83;;;2.30;;
16093;SDS011;8151;47.824;12.092;2023-05-07T06:22:26;2.37;;;2.17;;
16093;SDS011;8151;47.824;12.092;2023-05-07T06:24:54;3.20;;;2.47;;
16093;SDS011;8151;47.824;12.092;2023-05-07T06:27:22;3.77;;;3.07;;
16093;SDS011;8151;47.824;12.092;2023-05-07T06:29:51;3.50;;;3.20;;
16093;SDS011;8151;47.824;12.092;2023-05-07T06:32:20;4.37;;;3.43;;
16093;SDS011;8151;47.824;12.092;2023-05-07T06:34:48;6.67;;;3.70;;
16093;SDS011;8151;47.824;12.092;2023-05-07T06:37:17;3.43;;;3.13;;
16093;SDS011;8151;47.824;12.092;2023-05-07T06:39:48;3.63;;;3.33;;
16093;SDS011;8151;47.824;12.092;2023-05-07T06:42:16;7.27;;;3.60;;
16093;SDS011;8151;47.824;12.092;2023-05-07T06:44:47;4.03;;;3.60;;
16093;SDS011;8151;47.824;12.092;2023-05-07T06:47:15;3.67;;;3.27;;
16093;SDS011;8151;47.824;12.092;2023-05-07T06:49:46;3.50;;;3.00;;
16093;SDS011;8151;47.824;12.092;2023-05-07T06:52:15;4.30;;;3.90;;
16093;SDS011;8151;47.824;12.092;2023-05-07T06:54:43;5.03;;;3.90;;
16093;SDS011;8151;47.824;12.092;2023-05-07T06:57:13;3.80;;;3.33;;
16093;SDS011;8151;47.824;12.092;2023-05-07T06:59:42;3.77;;;3.47;;
16093;SDS011;8151;47.824;12.092;2023-05-07T07:02:10;5.43;;;3.70;;
16093;SDS011;8151;47.824;12.092;2023-05-07T07:04:38;6.77;;;4.03;;
16093;SDS011;8151;47.824;12.092;2023-05-07T07:07:08;5.10;;;4.13;;
16093;SDS011;8151;47.824;12.092;2023-05-07T07:09:37;4.47;;;3.83;;
16093;SDS011;8151;47.824;12.092;2023-05-07T07:12:05;6.33;;;3.83;;
16093;SDS011;8151;47.824;12.092;2023-05-07T07:14:35;4.27;;;3.67;;
16093;SDS011;8151;47.824;12.092;2023-05-07T07:17:03;5.30;;;3.60;;
16093;SDS011;8151;47.824;12.092;2023-05-07T07:19:32;4.87;;;3.73;;
16093;SDS011;8151;47.824;12.092;2023-05-07T07:22:01;5.77;;;3.73;;
16093;SDS011;8151;47.824;12.092;2023-05-07T07:24:29;5.87;;;3.47;;
16093;SDS011;8151;47.824;12.092;2023-05-07T07:26:58;4.00;;;3.17;;
16093;SDS011;8151;47.824;12.092;2023-05-07T07:29:27;5.67;;;3.40;;
16093;SDS011;8151;47.824;12.092;2023-05-07T07:31:57;5.03;;;3.77;;
16093;SDS011;8151;47.824;12.092;2023-05-07T07:34:25;3.77;;;3.40;;
16093;SDS011;8151;47.824;12.092;2023-05-07T07:36:54;3.20;;;3.00;;
16093;SDS011;8151;47.824;12.092;2023-05-07T07:39:23;4.93;;;3.37;;
16093;SDS011;8151;47.824;12.092;2023-05-07T07:41:51;4.13;;;3.00;;
16093;SDS011;8151;47.824;12.092;2023-05-07T07:44:19;2.80;;;2.60;;
16093;SDS011;8151;47.824;12.092;2023-05-07T07:46:48;3.00;;;2.77;;
16093;SDS011;8151;47.824;12.092;2023-05-07T07:49:21;19.07;;;2.97;;
16093;SDS011;8151;47.824;12.092;2023-05-07T07:51:49;3.47;;;3.00;;
16093;SDS011;8151;47.824;12.092;2023-05-07T07:54:17;3.50;;;3.20;;
16093;SDS011;8151;47.824;12.092;2023-05-07T07:56:49;3.80;;;3.50;;
16093;SDS011;8151;47.824;12.092;2023-05-07T07:59:17;3.40;;;3.10;;
16093;SDS011;8151;47.824;12.092;2023-05-07T08:01:48;3.47;;;3.17;;
16093;SDS011;8151;47.824;12.092;2023-05-07T08:04:22;3.50;;;3.20;;
16093;SDS011;8151;47.824;12.092;2023-05-07T08:06:51;5.33;;;3.77;;
16093;SDS011;8151;47.824;12.092;2023-05-07T08:09:21;4.57;;;3.77;;
16093;SDS011;8151;47.824;12.092;2023-05-07T08:11:50;4.23;;;3.63;;
16093;SDS011;8151;47.824;12.092;2023-05-07T08:14:18;3.70;;;3.40;;
16093;SDS011;8151;47.824;12.092;2023-05-07T08:16:48;3.97;;;3.53;;
16093;SDS011;8151;47.824;12.092;2023-05-07T08:19:17;3.73;;;3.43;;
16093;SDS011;8151;47.824;12.092;2023-05-07T08:21:46;5.87;;;3.23;;
16093;SDS011;8151;47.824;12.092;2023-05-07T08:24:16;5.83;;;3.07;;
16093;SDS011;8151;47.824;12.092;2023-05-07T08:26:45;9.83;;;3.40;;
16093;SDS011;8151;47.824;12.092;2023-05-07T08:29:13;4.07;;;2.70;;
16093;SDS011;8151;47.824;12.092;2023-05-07T08:31:42;3.80;;;2.80;;
16093;SDS011;8151;47.824;12.092;2023-05-07T08:34:14;3.57;;;2.80;;
16093;SDS011;8151;47.824;12.092;2023-05-07T08:36:43;4.87;;;3.10;;
16093;SDS011;8151;47.824;12.092;2023-05-07T08:39:15;3.30;;;3.00;;
16093;SDS011;8151;47.824;12.092;2023-05-07T08:41:44;3.17;;;2.87;;
16093;SDS011;8151;47.824;12.092;2023-05-07T08:44:13;3.33;;;3.03;;
16093;SDS011;8151;47.824;12.092;2023-05-07T08:46:42;4.10;;;3.70;;
16093;SDS011;8151;47.824;12.092;2023-05-07T08:49:15;5.63;;;4.07;;
16093;SDS011;8151;47.824;12.092;2023-05-07T08:51:43;7.10;;;3.30;;
16093;SDS011;8151;47.824;12.092;2023-05-07T08:54:12;7.30;;;3.33;;
16093;SDS011;8151;47.824;12.092;2023-05-07T08:56:47;4.07;;;3.20;;
16093;SDS011;8151;47.824;12.092;2023-05-07T08:59:16;4.43;;;2.93;;
16093;SDS011;8151;47.824;12.092;2023-05-07T09:01:45;3.40;;;3.00;;
16093;SDS011;8151;47.824;12.092;2023-05-07T09:04:13;4.23;;;2.70;;
16093;SDS011;8151;47.824;12.092;2023-05-07T09:06:42;2.67;;;2.47;;
16093;SDS011;8151;47.824;12.092;2023-05-07T09:09:22;5.50;;;2.80;;
16093;SDS011;8151;47.824;12.092;2023-05-07T09:11:56;2.83;;;2.63;;
16093;SDS011;8151;47.824;12.092;2023-05-07T09:14:25;3.30;;;3.00;;
16093;SDS011;8151;47.824;12.092;2023-05-07T09:16:54;2.80;;;2.37;;
16093;SDS011;8151;47.824;12.092;2023-05-07T09:19:25;3.13;;;2.67;;
16093;SDS011;8151;47.824;12.092;2023-05-07T09:22:03;5.70;;;3.83;;
16093;SDS011;8151;47.824;12.092;2023-05-07T09:24:35;3.13;;;2.57;;
16093;SDS011;8151;47.824;12.092;2023-05-07T09:27:04;2.77;;;2.57;;
16093;SDS011;8151;47.824;12.092;2023-05-07T09:29:35;6.60;;;4.07;;
16093;SDS011;8151;47.824;12.092;2023-05-07T09:32:03;2.83;;;2.60;;
16093;SDS011;8151;47.824;12.092;2023-05-07T09:34:33;3.03;;;1.80;;
16093;SDS011;8151;47.824;12.092;2023-05-07T09:37:10;2.57;;;1.70;;
16093;SDS011;8151;47.824;12.092;2023-05-07T09:39:42;2.13;;;1.97;;
16093;SDS011;8151;47.824;12.092;2023-05-07T09:42:13;2.03;;;1.73;;
16093;SDS011;8151;47.824;12.092;2023-05-07T09:44:43;2.07;;;1.87;;
16093;SDS011;8151;47.824;12.092;2023-05-07T09:47:12;2.17;;;1.83;;
16093;SDS011;8151;47.824;12.092;2023-05-07T09:49:48;2.47;;;1.73;;
16093;SDS011;8151;47.824;12.092;2023-05-07T09:52:18;2.23;;;1.80;;
16093;SDS011;8151;47.824;12.092;2023-05-07T09:54:50;1.70;;;1.53;;
16093;SDS011;8151;47.824;12.092;2023-05-07T09:57:22;2.67;;;1.97;;
16093;SDS011;8151;47.824;12.092;2023-05-07T09:59:51;2.40;;;1.80;;
16093;SDS011;8151;47.824;12.092;2023-05-07T10:02:21;3.97;;;1.83;;
16093;SDS011;8151;47.824;12.092;2023-05-07T10:04:51;4.07;;;1.73;;
16093;SDS011;8151;47.824;12.092;2023-05-07T10:07:21;1.83;;;1.70;;
16093;SDS011;8151;47.824;12.092;2023-05-07T10:09:52;2.27;;;1.67;;
16093;SDS011;8151;47.824;12.092;2023-05-07T10:12:21;1.80;;;1.70;;
16093;SDS011;8151;47.824;12.092;2023-05-07T10:14:51;1.93;;;1.67;;
16093;SDS011;8151;47.824;12.092;2023-05-07T10:17:21;2.23;;;1.67;;
16093;SDS011;8151;47.824;12.092;2023-05-07T10:19:51;1.90;;;1.80;;
16093;SDS011;8151;47.824;12.092;2023-05-07T10:22:23;5.27;;;3.77;;
16093;SDS011;8151;47.824;12.092;2023-05-07T10:24:55;1.80;;;1.70;;
16093;SDS011;8151;47.824;12.092;2023-05-07T10:27:27;1.63;;;1.33;;
16093;SDS011;8151;47.824;12.092;2023-05-07T10:30:00;2.87;;;1.70;;
16093;SDS011;8151;47.824;12.092;2023-05-07T10:32:40;1.57;;;1.47;;
16093;SDS011;8151;47.824;12.092;2023-05-07T10:35:14;1.67;;;1.57;;
16093;SDS011;8151;47.824;12.092;2023-05-07T10:37:45;2.00;;;1.70;;
16093;SDS011;8151;47.824;12.092;2023-05-07T10:40:17;1.70;;;1.60;;
16093;SDS011;8151;47.824;12.092;2023-05-07T10:42:55;3.43;;;1.50;;
16093;SDS011;8151;47.824;12.092;2023-05-07T10:45:24;1.87;;;1.40;;
16093;SDS011;8151;47.824;12.092;2023-05-07T10:48:05;1.80;;;1.40;;
16093;SDS011;8151;47.824;12.092;2023-05-07T10:51:17;1.53;;;1.40;;
16093;SDS011;8151;47.824;12.092;2023-05-07T10:53:47;3.30;;;2.27;;
16093;SDS011;8151;47.824;12.092;2023-05-07T10:56:27;4.35;;;3.00;;
16093;SDS011;8151;47.824;12.092;2023-05-07T10:58:56;8.63;;;4.37;;
16093;SDS011;8151;47.824;12.092;2023-05-07T11:01:53;3.47;;;3.17;;
16093;SDS011;8151;47.824;12.092;2023-05-07T11:04:23;1.67;;;1.50;;
16093;SDS011;8151;47.824;12.092;2023-05-07T11:09:59;2.28;;;1.70;;
16093;SDS011;8151;47.824;12.092;2023-05-07T11:15:34;3.75;;;1.70;;
16093;SDS011;8151;47.824;12.092;2023-05-07T11:18:09;1.33;;;1.23;;
16093;SDS011;8151;47.824;12.092;2023-05-07T11:20:48;1.70;;;1.60;;
16093;SDS011;8151;47.824;12.092;2023-05-07T11:26:29;2.42;;;2.15;;
16093;SDS011;8151;47.824;12.092;2023-05-07T11:29:00;2.45;;;2.13;;
16093;SDS011;8151;47.824;12.092;2023-05-07T11:31:29;2.55;;;1.40;;
16093;SDS011;8151;47.824;12.092;2023-05-07T11:33:58;2.15;;;1.48;;
16093;SDS011;8151;47.824;12.092;2023-05-07T11:36:31;1.70;;;1.60;;
16093;SDS011;8151;47.824;12.092;2023-05-07T11:39:01;1.80;;;1.70;;
16093;SDS011;8151;47.824;12.092;2023-05-07T11:41:35;3.45;;;1.90;;
16093;SDS011;8151;47.824;12.092;2023-05-07T11:44:06;2.08;;;1.63;;
16093;SDS011;8151;47.824;12.092;2023-05-07T11:46:34;1.60;;;1.50;;
16093;SDS011;8151;47.824;12.092;2023-05-07T11:49:04;7.82;;;1.48;;
16093;SDS011;8151;47.824;12.092;2023-05-07T11:51:33;1.50;;;1.40;;
16093;SDS011;8151;47.824;12.092;2023-05-07T11:54:03;3.55;;;1.30;;
16093;SDS011;8151;47.824;12.092;2023-05-07T11:56:35;2.33;;;1.45;;
16093;SDS011;8151;47.824;12.092;2023-05-07T11:59:04;1.80;;;1.70;;
16093;SDS011;8151;47.824;12.092;2023-05-07T12:01:35;1.98;;;1.50;;
16093;SDS011;8151;47.824;12.092;2023-05-07T12:04:04;1.85;;;1.40;;
16093;SDS011;8151;47.824;12.092;2023-05-07T12:06:36;1.98;;;1.50;;
16093;SDS011;8151;47.824;12.092;2023-05-07T12:09:05;3.25;;;2.60;;
16093;SDS011;8151;47.824;12.092;2023-05-07T12:11:38;8.43;;;6.50;;
16093;SDS011;8151;47.824;12.092;2023-05-07T12:14:08;2.38;;;2.17;;
16093;SDS011;8151;47.824;12.092;2023-05-07T12:16:38;2.95;;;2.10;;
16093;SDS011;8151;47.824;12.092;2023-05-07T12:19:08;2.88;;;1.48;;
16093;SDS011;8151;47.824;12.092;2023-05-07T12:21:41;1.33;;;1.20;;
16093;SDS011;8151;47.824;12.092;2023-05-07T12:24:10;2.50;;;1.55;;
16093;SDS011;8151;47.824;12.092;2023-05-07T12:26:38;1.67;;;1.50;;
16093;SDS011;8151;47.824;12.092;2023-05-07T12:29:09;2.53;;;1.52;;
16093;SDS011;8151;47.824;12.092;2023-05-07T12:31:40;1.30;;;1.20;;
16093;SDS011;8151;47.824;12.092;2023-05-07T12:34:10;2.97;;;1.67;;
16093;SDS011;8151;47.824;12.092;2023-05-07T12:36:39;3.50;;;3.20;;
16093;SDS011;8151;47.824;12.092;2023-05-07T12:39:08;3.97;;;2.90;;
16093;SDS011;8151;47.824;12.092;2023-05-07T12:41:51;4.72;;;4.18;;
16093;SDS011;8151;47.824;12.092;2023-05-07T12:44:23;3.25;;;1.75;;
16093;SDS011;8151;47.824;12.092;2023-05-07T12:46:52;2.35;;;2.10;;
16093;SDS011;8151;47.824;12.092;2023-05-07T12:49:20;2.28;;;1.60;;
16093;SDS011;8151;47.824;12.092;2023-05-07T12:51:51;1.80;;;1.52;;
16093;SDS011;8151;47.824;12.092;2023-05-07T12:54:30;3.13;;;1.50;;
16093;SDS011;8151;47.824;12.092;2023-05-07T12:57:02;1.83;;;1.40;;
16093;SDS011;8151;47.824;12.092;2023-05-07T12:59:32;3.22;;;1.42;;
16093;SDS011;8151;47.824;12.092;2023-05-07T13:02:10;1.55;;;1.40;;
16093;SDS011;8151;47.824;12.092;2023-05-07T13:04:39;3.88;;;1.90;;
16093;SDS011;8151;47.824;12.092;2023-05-07T13:07:08;1.70;;;1.60;;
16093;SDS011;8151;47.824;12.092;2023-05-07T13:09:36;2.05;;;1.50;;
16093;SDS011;8151;47.824;12.092;2023-05-07T13:12:05;2.05;;;1.65;;
16093;SDS011;8151;47.824;12.092;2023-05-07T13:14:35;4.43;;;1.55;;
16093;SDS011;8151;47.824;12.092;2023-05-07T13:17:03;3.75;;;1.40;;
16093;SDS011;8151;47.824;12.092;2023-05-07T13:19:32;1.80;;;1.70;;
16093;SDS011;8151;47.824;12.092;2023-05-07T13:22:00;1.63;;;1.52;;
16093;SDS011;8151;47.824;12.092;2023-05-07T13:24:28;1.70;;;1.60;;
16093;SDS011;8151;47.824;12.092;2023-05-07T13:26:57;2.78;;;1.50;;
16093;SDS011;8151;47.824;12.092;2023-05-07T13:29:25;2.25;;;1.77;;
16093;SDS011;8151;47.824;12.092;2023-05-07T13:31:58;2.38;;;1.90;;
16093;SDS011;8151;47.824;12.092;2023-05-07T13:34:27;2.42;;;1.50;;
16093;SDS011;8151;47.824;12.092;2023-05-07T13:36:56;9.10;;;3.45;;
16093;SDS011;8151;47.824;12.092;2023-05-07T13:39:24;2.15;;;2.05;;
16093;SDS011;8151;47.824;12.092;2023-05-07T13:42:01;1.60;;;1.50;;
16093;SDS011;8151;47.824;12.092;2023-05-07T13:44:29;1.60;;;1.50;;
16093;SDS011;8151;47.824;12.092;2023-05-07T13:46:59;4.90;;;2.22;;
16093;SDS011;8151;47.824;12.092;2023-05-07T13:49:27;3.05;;;2.30;;
16093;SDS011;8151;47.824;12.092;2023-05-07T13:51:56;2.40;;;2.20;;
16093;SDS011;8151;47.824;12.092;2023-05-07T13:54:24;2.42;;;2.20;;
16093;SDS011;8151;47.824;12.092;2023-05-07T13:56:53;2.67;;;1.92;;
16093;SDS011;8151;47.824;12.092;2023-05-07T13:59:21;2.83;;;2.10;;
16093;SDS011;8151;47.824;12.092;2023-05-07T14:01:52;5.05;;;3.97;;
16093;SDS011;8151;47.824;12.092;2023-05-07T14:04:23;8.63;;;7.30;;
16093;SDS011;8151;47.824;12.092;2023-05-07T14:06:53;3.60;;;2.50;;
16093;SDS011;8151;47.824;12.092;2023-05-07T14:09:21;2.22;;;2.03;;
16093;SDS011;8151;47.824;12.092;2023-05-07T14:11:52;1.83;;;1.67;;
16093;SDS011;8151;47.824;12.092;2023-05-07T14:14:21;2.50;;;2.30;;
16093;SDS011;8151;47.824;12.092;2023-05-07T14:16:49;2.33;;;2.10;;
16093;SDS011;8151;47.824;12.092;2023-05-07T14:19:18;1.80;;;1.70;;
16093;SDS011;8151;47.824;12.092;2023-05-07T14:21:48;3.35;;;2.40;;
16093;SDS011;8151;47.824;12.092;2023-05-07T14:24:16;2.45;;;1.90;;
16093;SDS011;8151;47.824;12.092;2023-05-07T14:27:00;2.45;;;2.00;;
16093;SDS011;8151;47.824;12.092;2023-05-07T14:29:29;2.50;;;2.13;;
16093;SDS011;8151;47.824;12.092;2023-05-07T14:31:58;2.15;;;1.95;;
16093;SDS011;8151;47.824;12.092;2023-05-07T14:34:26;1.95;;;1.85;;
16093;SDS011;8151;47.824;12.092;2023-05-07T14:36:56;4.07;;;1.92;;
16093;SDS011;8151;47.824;12.092;2023-05-07T14:39:24;2.80;;;2.60;;
16093;SDS011;8151;47.824;12.092;2023-05-07T14:41:53;1.98;;;1.80;;
16093;SDS011;8151;47.824;12.092;2023-05-07T14:44:22;2.20;;;2.00;;
16093;SDS011;8151;47.824;12.092;2023-05-07T14:46:53;2.42;;;2.03;;
16093;SDS011;8151;47.824;12.092;2023-05-07T14:49:22;3.03;;;1.98;;
16093;SDS011;8151;47.824;12.092;2023-05-07T14:51:53;1.90;;;1.67;;
16093;SDS011;8151;47.824;12.092;2023-05-07T14:54:26;1.70;;;1.60;;
16093;SDS011;8151;47.824;12.092;2023-05-07T14:56:55;2.05;;;1.75;;
16093;SDS011;8151;47.824;12.092;2023-05-07T14:59:23;1.98;;;1.88;;
16093;SDS011;8151;47.824;12.092;2023-05-07T15:01:53;1.85;;;1.75;;
16093;SDS011;8151;47.824;12.092;2023-05-07T15:04:27;2.20;;;2.00;;
16093;SDS011;8151;47.824;12.092;2023-05-07T15:06:56;4.95;;;2.47;;
16093;SDS011;8151;47.824;12.092;2023-05-07T15:09:26;2.00;;;1.90;;
16093;SDS011;8151;47.824;12.092;2023-05-07T15:11:55;2.50;;;2.30;;
16093;SDS011;8151;47.824;12.092;2023-05-07T15:14:23;2.50;;;2.30;;